sensor_id;sensor_type;location;lat;lon;timestamp;pressure;altitude;pressure_sealevel;temperature;humidity
59588;BME280;45412;54.472;18.464;2022-12-10T00:01:18;99330.42;;;-2.54;87.01
59588;BME280;45412;54.472;18.464;2022-12-10T00:04:07;99326.85;;;-2.57;87.03
59588;BME280;45412;54.472;18.464;2022-12-10T00:06:54;99325.64;;;-2.57;87.28
59588;BME280;45412;54.472;18.464;2022-12-10T00:09:42;99331.55;;;-2.57;87.13
59588;BME280;45412;54.472;18.464;2022-12-10T00:12:29;99330.36;;;-2.58;87.19
59588;BME280;45412;54.472;18.464;2022-12-10T00:15:17;99327.88;;;-2.56;86.86
59588;BME280;45412;54.472;18.464;2022-12-10T00:18:05;99331.20;;;-2.57;87.05
59588;BME280;45412;54.472;18.464;2022-12-10T00:20:54;99330.50;;;-2.57;86.95
59588;BME280;45412;54.472;18.464;2022-12-10T00:23:42;99331.41;;;-2.53;86.99
59588;BME280;45412;54.472;18.464;2022-12-10T00:26:34;99331.65;;;-2.49;87.16
59588;BME280;45412;54.472;18.464;2022-12-10T00:29:22;99329.06;;;-2.50;86.79
59588;BME280;45412;54.472;18.464;2022-12-10T00:32:10;99330.16;;;-2.47;84.09
59588;BME280;45412;54.472;18.464;2022-12-10T00:34:58;99331.46;;;-2.40;82.44
59588;BME280;45412;54.472;18.464;2022-12-10T00:37:45;99328.27;;;-2.33;82.49
59588;BME280;45412;54.472;18.464;2022-12-10T00:40:33;99329.32;;;-2.29;82.45
59588;BME280;45412;54.472;18.464;2022-12-10T00:43:21;99325.20;;;-2.30;83.28
59588;BME280;45412;54.472;18.464;2022-12-10T00:46:10;99333.06;;;-2.36;83.95
59588;BME280;45412;54.472;18.464;2022-12-10T00:49:00;99328.22;;;-2.42;84.40
59588;BME280;45412;54.472;18.464;2022-12-10T00:51:49;99330.78;;;-2.45;85.08
59588;BME280;45412;54.472;18.464;2022-12-10T00:54:53;99329.48;;;-2.47;85.34
59588;BME280;45412;54.472;18.464;2022-12-10T00:57:42;99335.45;;;-2.44;85.52
59588;BME280;45412;54.472;18.464;2022-12-10T01:00:29;99338.65;;;-2.42;84.74
59588;BME280;45412;54.472;18.464;2022-12-10T01:03:17;99339.98;;;-2.45;84.52
59588;BME280;45412;54.472;18.464;2022-12-10T01:09:06;99333.69;;;-2.58;84.41
59588;BME280;45412;54.472;18.464;2022-12-10T01:11:57;99331.48;;;-2.60;84.32
59588;BME280;45412;54.472;18.464;2022-12-10T01:14:45;99330.80;;;-2.60;84.59
59588;BME280;45412;54.472;18.464;2022-12-10T01:17:32;99332.35;;;-2.60;84.54
59588;BME280;45412;54.472;18.464;2022-12-10T01:20:20;99330.40;;;-2.59;84.81
59588;BME280;45412;54.472;18.464;2022-12-10T01:23:08;99332.75;;;-2.61;84.66
59588;BME280;45412;54.472;18.464;2022-12-10T01:26:04;99329.48;;;-2.62;85.12
59588;BME280;45412;54.472;18.464;2022-12-10T01:28:53;99326.30;;;-2.61;84.99
59588;BME280;45412;54.472;18.464;2022-12-10T01:31:41;99328.95;;;-2.57;84.94
59588;BME280;45412;54.472;18.464;2022-12-10T01:34:29;99325.92;;;-2.54;84.74
59588;BME280;45412;54.472;18.464;2022-12-10T01:37:16;99327.77;;;-2.53;84.98
59588;BME280;45412;54.472;18.464;2022-12-10T01:40:05;99326.17;;;-2.52;84.89
59588;BME280;45412;54.472;18.464;2022-12-10T01:42:53;99324.95;;;-2.52;84.93
59588;BME280;45412;54.472;18.464;2022-12-10T01:45:46;99324.15;;;-2.54;84.96
59588;BME280;45412;54.472;18.464;2022-12-10T01:48:34;99322.43;;;-2.54;84.92
59588;BME280;45412;54.472;18.464;2022-12-10T01:51:24;99319.15;;;-2.55;85.12
59588;BME280;45412;54.472;18.464;2022-12-10T01:54:21;99319.70;;;-2.56;84.68
59588;BME280;45412;54.472;18.464;2022-12-10T01:57:28;99317.71;;;-2.59;85.06
59588;BME280;45412;54.472;18.464;2022-12-10T02:00:16;99319.11;;;-2.59;85.03
59588;BME280;45412;54.472;18.464;2022-12-10T02:03:12;99316.85;;;-2.59;85.33
59588;BME280;45412;54.472;18.464;2022-12-10T02:06:21;99319.27;;;-2.59;85.04
59588;BME280;45412;54.472;18.464;2022-12-10T02:09:55;99317.30;;;-2.62;84.64
59588;BME280;45412;54.472;18.464;2022-12-10T02:13:02;99324.48;;;-2.63;85.08
59588;BME280;45412;54.472;18.464;2022-12-10T02:15:59;99322.19;;;-2.62;84.98
59588;BME280;45412;54.472;18.464;2022-12-10T02:19:04;99316.16;;;-2.64;85.04
59588;BME280;45412;54.472;18.464;2022-12-10T02:21:57;99317.25;;;-2.65;85.24
59588;BME280;45412;54.472;18.464;2022-12-10T02:24:47;99317.83;;;-2.67;85.30
59588;BME280;45412;54.472;18.464;2022-12-10T02:30:53;99320.27;;;-2.72;85.25
59588;BME280;45412;54.472;18.464;2022-12-10T02:33:48;99322.21;;;-2.73;85.57
59588;BME280;45412;54.472;18.464;2022-12-10T02:36:41;99319.97;;;-2.73;85.61
59588;BME280;45412;54.472;18.464;2022-12-10T02:39:37;99321.19;;;-2.74;85.53
59588;BME280;45412;54.472;18.464;2022-12-10T02:42:29;99324.47;;;-2.73;85.42
59588;BME280;45412;54.472;18.464;2022-12-10T02:45:20;99326.73;;;-2.74;85.26
59588;BME280;45412;54.472;18.464;2022-12-10T02:48:10;99321.66;;;-2.77;84.89
59588;BME280;45412;54.472;18.464;2022-12-10T02:51:00;99325.88;;;-2.79;85.29
59588;BME280;45412;54.472;18.464;2022-12-10T02:53:59;99326.28;;;-2.80;85.13
59588;BME280;45412;54.472;18.464;2022-12-10T02:56:56;99327.66;;;-2.85;84.92
59588;BME280;45412;54.472;18.464;2022-12-10T03:00:14;99327.17;;;-2.85;85.39
59588;BME280;45412;54.472;18.464;2022-12-10T03:03:24;99334.33;;;-2.87;85.02
59588;BME280;45412;54.472;18.464;2022-12-10T03:06:39;99330.02;;;-2.87;85.14
59588;BME280;45412;54.472;18.464;2022-12-10T03:09:37;99327.95;;;-2.88;85.43
59588;BME280;45412;54.472;18.464;2022-12-10T03:12:41;99325.42;;;-2.91;84.81
59588;BME280;45412;54.472;18.464;2022-12-10T03:15:35;99324.94;;;-2.92;84.77
59588;BME280;45412;54.472;18.464;2022-12-10T03:18:26;99324.88;;;-2.90;84.96
59588;BME280;45412;54.472;18.464;2022-12-10T03:21:16;99320.66;;;-2.89;84.24
59588;BME280;45412;54.472;18.464;2022-12-10T03:24:05;99320.98;;;-2.87;84.19
59588;BME280;45412;54.472;18.464;2022-12-10T03:26:55;99322.07;;;-2.89;84.01
59588;BME280;45412;54.472;18.464;2022-12-10T03:29:54;99326.21;;;-2.88;84.21
59588;BME280;45412;54.472;18.464;2022-12-10T03:32:44;99319.45;;;-2.89;83.58
59588;BME280;45412;54.472;18.464;2022-12-10T03:35:33;99322.96;;;-2.90;83.89
59588;BME280;45412;54.472;18.464;2022-12-10T03:38:21;99323.16;;;-2.91;83.93
59588;BME280;45412;54.472;18.464;2022-12-10T03:41:10;99324.26;;;-2.92;83.98
59588;BME280;45412;54.472;18.464;2022-12-10T03:43:59;99325.94;;;-2.90;84.29
59588;BME280;45412;54.472;18.464;2022-12-10T03:46:47;99327.08;;;-2.88;84.07
59588;BME280;45412;54.472;18.464;2022-12-10T03:49:35;99322.29;;;-2.85;83.86
59588;BME280;45412;54.472;18.464;2022-12-10T03:52:22;99322.23;;;-2.84;84.06
59588;BME280;45412;54.472;18.464;2022-12-10T03:55:11;99320.09;;;-2.82;84.31
59588;BME280;45412;54.472;18.464;2022-12-10T03:57:59;99314.88;;;-2.82;84.39
59588;BME280;45412;54.472;18.464;2022-12-10T04:00:47;99316.73;;;-2.85;84.21
59588;BME280;45412;54.472;18.464;2022-12-10T04:03:38;99319.47;;;-2.89;84.56
59588;BME280;45412;54.472;18.464;2022-12-10T04:06:26;99320.92;;;-2.91;84.36
59588;BME280;45412;54.472;18.464;2022-12-10T04:09:15;99319.63;;;-2.94;84.83
59588;BME280;45412;54.472;18.464;2022-12-10T04:12:03;99319.50;;;-2.95;84.81
59588;BME280;45412;54.472;18.464;2022-12-10T04:14:52;99319.60;;;-2.98;85.10
59588;BME280;45412;54.472;18.464;2022-12-10T04:17:58;99318.55;;;-2.98;85.34
59588;BME280;45412;54.472;18.464;2022-12-10T04:20:46;99319.04;;;-2.96;85.09
59588;BME280;45412;54.472;18.464;2022-12-10T04:23:53;99316.71;;;-2.95;85.07
59588;BME280;45412;54.472;18.464;2022-12-10T04:27:04;99319.83;;;-2.94;84.95
59588;BME280;45412;54.472;18.464;2022-12-10T04:29:54;99321.49;;;-2.92;85.27
59588;BME280;45412;54.472;18.464;2022-12-10T04:32:43;99322.73;;;-2.94;85.47
59588;BME280;45412;54.472;18.464;2022-12-10T04:35:31;99319.24;;;-2.93;85.34
59588;BME280;45412;54.472;18.464;2022-12-10T04:38:19;99317.25;;;-2.95;84.92
59588;BME280;45412;54.472;18.464;2022-12-10T04:41:07;99317.46;;;-2.96;85.36
59588;BME280;45412;54.472;18.464;2022-12-10T04:44:09;99319.20;;;-2.97;85.55
59588;BME280;45412;54.472;18.464;2022-12-10T04:46:57;99317.30;;;-2.97;85.55
59588;BME280;45412;54.472;18.464;2022-12-10T04:49:45;99310.04;;;-2.98;85.53
59588;BME280;45412;54.472;18.464;2022-12-10T04:52:33;99308.49;;;-2.98;85.62
59588;BME280;45412;54.472;18.464;2022-12-10T04:55:21;99310.23;;;-2.98;85.36
59588;BME280;45412;54.472;18.464;2022-12-10T04:58:08;99308.52;;;-2.99;85.24
59588;BME280;45412;54.472;18.464;2022-12-10T05:01:04;99304.98;;;-2.97;85.46
59588;BME280;45412;54.472;18.464;2022-12-10T05:03:53;99306.98;;;-2.95;85.65
59588;BME280;45412;54.472;18.464;2022-12-10T05:06:42;99302.44;;;-2.94;85.65
59588;BME280;45412;54.472;18.464;2022-12-10T05:09:30;99304.38;;;-2.95;85.33
59588;BME280;45412;54.472;18.464;2022-12-10T05:12:18;99302.53;;;-2.97;85.25
59588;BME280;45412;54.472;18.464;2022-12-10T05:15:07;99305.93;;;-2.99;85.46
59588;BME280;45412;54.472;18.464;2022-12-10T05:17:55;99308.44;;;-3.02;85.56
59588;BME280;45412;54.472;18.464;2022-12-10T05:20:43;99308.67;;;-3.03;85.51
59588;BME280;45412;54.472;18.464;2022-12-10T05:23:31;99305.55;;;-3.03;85.63
59588;BME280;45412;54.472;18.464;2022-12-10T05:26:23;99307.42;;;-3.02;85.43
59588;BME280;45412;54.472;18.464;2022-12-10T05:29:13;99307.05;;;-3.02;84.94
59588;BME280;45412;54.472;18.464;2022-12-10T05:32:03;99302.70;;;-3.02;84.98
59588;BME280;45412;54.472;18.464;2022-12-10T05:34:51;99304.44;;;-3.01;85.07
59588;BME280;45412;54.472;18.464;2022-12-10T05:37:39;99312.26;;;-3.02;84.86
59588;BME280;45412;54.472;18.464;2022-12-10T05:40:27;99311.66;;;-2.99;85.09
59588;BME280;45412;54.472;18.464;2022-12-10T05:43:15;99312.73;;;-3.00;84.80
59588;BME280;45412;54.472;18.464;2022-12-10T05:46:10;99311.23;;;-3.02;84.85
59588;BME280;45412;54.472;18.464;2022-12-10T05:49:00;99314.98;;;-3.05;84.82
59588;BME280;45412;54.472;18.464;2022-12-10T05:51:48;99317.91;;;-3.04;85.02
59588;BME280;45412;54.472;18.464;2022-12-10T05:54:35;99320.10;;;-3.02;85.03
59588;BME280;45412;54.472;18.464;2022-12-10T05:57:23;99318.17;;;-3.02;84.60
59588;BME280;45412;54.472;18.464;2022-12-10T06:00:12;99316.20;;;-3.00;84.84
59588;BME280;45412;54.472;18.464;2022-12-10T06:02:59;99316.11;;;-2.97;84.85
59588;BME280;45412;54.472;18.464;2022-12-10T06:05:47;99318.46;;;-3.00;84.88
59588;BME280;45412;54.472;18.464;2022-12-10T06:08:37;99319.71;;;-3.02;84.83
59588;BME280;45412;54.472;18.464;2022-12-10T06:11:27;99314.59;;;-3.04;84.62
59588;BME280;45412;54.472;18.464;2022-12-10T06:14:16;99312.47;;;-3.08;84.66
59588;BME280;45412;54.472;18.464;2022-12-10T06:17:03;99315.55;;;-3.12;84.65
59588;BME280;45412;54.472;18.464;2022-12-10T06:19:51;99312.18;;;-3.15;85.12
59588;BME280;45412;54.472;18.464;2022-12-10T06:22:38;99318.91;;;-3.14;85.52
59588;BME280;45412;54.472;18.464;2022-12-10T06:25:26;99326.83;;;-3.12;85.35
59588;BME280;45412;54.472;18.464;2022-12-10T06:28:14;99328.76;;;-3.07;85.16
59588;BME280;45412;54.472;18.464;2022-12-10T06:31:02;99324.73;;;-3.05;85.01
59588;BME280;45412;54.472;18.464;2022-12-10T06:33:50;99328.48;;;-3.04;85.26
59588;BME280;45412;54.472;18.464;2022-12-10T06:36:38;99328.63;;;-3.03;85.29
59588;BME280;45412;54.472;18.464;2022-12-10T06:39:26;99330.80;;;-3.06;85.68
59588;BME280;45412;54.472;18.464;2022-12-10T06:42:14;99334.18;;;-3.03;85.31
59588;BME280;45412;54.472;18.464;2022-12-10T06:45:01;99338.23;;;-3.05;85.16
59588;BME280;45412;54.472;18.464;2022-12-10T06:47:49;99339.48;;;-3.05;85.49
59588;BME280;45412;54.472;18.464;2022-12-10T06:50:37;99340.24;;;-3.03;85.54
59588;BME280;45412;54.472;18.464;2022-12-10T06:53:24;99348.21;;;-3.02;85.46
59588;BME280;45412;54.472;18.464;2022-12-10T06:56:18;99354.18;;;-2.99;85.68
59588;BME280;45412;54.472;18.464;2022-12-10T06:59:06;99357.44;;;-2.98;85.50
59588;BME280;45412;54.472;18.464;2022-12-10T07:01:54;99356.23;;;-2.93;85.77
59588;BME280;45412;54.472;18.464;2022-12-10T07:04:42;99354.42;;;-2.91;85.34
59588;BME280;45412;54.472;18.464;2022-12-10T07:07:30;99352.98;;;-2.89;84.96
59588;BME280;45412;54.472;18.464;2022-12-10T07:10:18;99349.55;;;-2.91;84.68
59588;BME280;45412;54.472;18.464;2022-12-10T07:13:07;99351.80;;;-2.95;84.68
59588;BME280;45412;54.472;18.464;2022-12-10T07:15:54;99354.21;;;-3.00;84.67
59588;BME280;45412;54.472;18.464;2022-12-10T07:18:43;99354.57;;;-3.00;84.69
59588;BME280;45412;54.472;18.464;2022-12-10T07:21:41;99352.86;;;-3.01;84.42
59588;BME280;45412;54.472;18.464;2022-12-10T07:24:29;99356.55;;;-3.02;84.44
59588;BME280;45412;54.472;18.464;2022-12-10T07:27:17;99359.86;;;-3.03;84.79
59588;BME280;45412;54.472;18.464;2022-12-10T07:30:05;99357.48;;;-3.04;84.85
59588;BME280;45412;54.472;18.464;2022-12-10T07:32:54;99360.64;;;-3.05;85.15
59588;BME280;45412;54.472;18.464;2022-12-10T07:35:41;99362.21;;;-3.06;85.32
59588;BME280;45412;54.472;18.464;2022-12-10T07:38:36;99358.68;;;-3.09;84.83
59588;BME280;45412;54.472;18.464;2022-12-10T07:41:25;99359.08;;;-3.11;84.86
59588;BME280;45412;54.472;18.464;2022-12-10T07:44:14;99359.52;;;-3.09;85.01
59588;BME280;45412;54.472;18.464;2022-12-10T07:47:02;99359.90;;;-3.04;85.23
59588;BME280;45412;54.472;18.464;2022-12-10T07:49:50;99356.20;;;-2.97;85.19
59588;BME280;45412;54.472;18.464;2022-12-10T07:52:38;99358.30;;;-2.92;84.82
59588;BME280;45412;54.472;18.464;2022-12-10T07:55:26;99362.85;;;-2.88;85.16
59588;BME280;45412;54.472;18.464;2022-12-10T07:58:14;99363.36;;;-2.83;85.27
59588;BME280;45412;54.472;18.464;2022-12-10T08:01:10;99363.40;;;-2.79;85.06
59588;BME280;45412;54.472;18.464;2022-12-10T08:03:58;99364.48;;;-2.80;84.47
59588;BME280;45412;54.472;18.464;2022-12-10T08:06:46;99366.81;;;-2.82;84.53
59588;BME280;45412;54.472;18.464;2022-12-10T08:09:35;99372.17;;;-2.82;84.41
59588;BME280;45412;54.472;18.464;2022-12-10T08:12:36;99373.25;;;-2.78;84.55
59588;BME280;45412;54.472;18.464;2022-12-10T08:15:24;99373.73;;;-2.77;84.55
59588;BME280;45412;54.472;18.464;2022-12-10T08:18:12;99381.44;;;-2.73;84.77
59588;BME280;45412;54.472;18.464;2022-12-10T08:21:09;99380.36;;;-2.72;84.42
59588;BME280;45412;54.472;18.464;2022-12-10T08:23:57;99380.92;;;-2.68;84.49
59588;BME280;45412;54.472;18.464;2022-12-10T08:26:49;99378.68;;;-2.64;84.38
59588;BME280;45412;54.472;18.464;2022-12-10T08:29:37;99378.41;;;-2.61;84.67
59588;BME280;45412;54.472;18.464;2022-12-10T08:32:25;99383.83;;;-2.56;84.57
59588;BME280;45412;54.472;18.464;2022-12-10T08:35:13;99382.33;;;-2.53;84.45
59588;BME280;45412;54.472;18.464;2022-12-10T08:38:01;99387.95;;;-2.50;84.48
59588;BME280;45412;54.472;18.464;2022-12-10T08:40:49;99388.20;;;-2.47;84.23
59588;BME280;45412;54.472;18.464;2022-12-10T08:43:38;99388.70;;;-2.42;84.21
59588;BME280;45412;54.472;18.464;2022-12-10T08:46:26;99394.82;;;-2.38;84.12
59588;BME280;45412;54.472;18.464;2022-12-10T08:49:14;99398.19;;;-2.35;83.77
59588;BME280;45412;54.472;18.464;2022-12-10T08:52:02;99394.71;;;-2.35;83.48
59588;BME280;45412;54.472;18.464;2022-12-10T08:54:50;99391.39;;;-2.34;83.53
59588;BME280;45412;54.472;18.464;2022-12-10T08:57:37;99395.75;;;-2.30;83.92
59588;BME280;45412;54.472;18.464;2022-12-10T09:00:26;99395.04;;;-2.24;84.09
59588;BME280;45412;54.472;18.464;2022-12-10T09:03:13;99395.35;;;-2.24;83.79
59588;BME280;45412;54.472;18.464;2022-12-10T09:06:08;99394.41;;;-2.27;83.24
59588;BME280;45412;54.472;18.464;2022-12-10T09:08:57;99393.66;;;-2.25;83.51
59588;BME280;45412;54.472;18.464;2022-12-10T09:11:45;99390.34;;;-2.19;83.80
59588;BME280;45412;54.472;18.464;2022-12-10T09:14:33;99391.17;;;-2.14;83.27
59588;BME280;45412;54.472;18.464;2022-12-10T09:17:22;99388.28;;;-2.11;83.29
59588;BME280;45412;54.472;18.464;2022-12-10T09:20:27;99384.23;;;-2.04;83.21
59588;BME280;45412;54.472;18.464;2022-12-10T09:23:20;99384.90;;;-1.99;83.36
59588;BME280;45412;54.472;18.464;2022-12-10T09:26:12;99385.05;;;-1.94;83.10
59588;BME280;45412;54.472;18.464;2022-12-10T09:29:00;99378.25;;;-1.93;82.70
59588;BME280;45412;54.472;18.464;2022-12-10T09:31:52;99389.77;;;-1.90;83.12
59588;BME280;45412;54.472;18.464;2022-12-10T09:34:40;99391.45;;;-1.87;82.75
59588;BME280;45412;54.472;18.464;2022-12-10T09:37:28;99389.85;;;-1.86;82.46
59588;BME280;45412;54.472;18.464;2022-12-10T09:40:29;99389.27;;;-1.86;82.50
59588;BME280;45412;54.472;18.464;2022-12-10T09:43:39;99390.05;;;-1.83;82.26
59588;BME280;45412;54.472;18.464;2022-12-10T09:53:01;99382.14;;;-1.76;81.52
59588;BME280;45412;54.472;18.464;2022-12-10T09:55:49;99382.48;;;-1.76;81.86
59588;BME280;45412;54.472;18.464;2022-12-10T09:58:38;99381.98;;;-1.76;81.49
59588;BME280;45412;54.472;18.464;2022-12-10T10:01:29;99379.24;;;-1.78;81.57
59588;BME280;45412;54.472;18.464;2022-12-10T10:04:20;99375.99;;;-1.79;81.30
59588;BME280;45412;54.472;18.464;2022-12-10T10:07:20;99377.75;;;-1.79;81.39
59588;BME280;45412;54.472;18.464;2022-12-10T10:10:31;99377.52;;;-1.78;81.61
59588;BME280;45412;54.472;18.464;2022-12-10T10:16:33;99380.91;;;-1.72;81.18
59588;BME280;45412;54.472;18.464;2022-12-10T10:19:33;99372.89;;;-1.71;81.44
59588;BME280;45412;54.472;18.464;2022-12-10T10:22:25;99374.55;;;-1.64;81.69
59588;BME280;45412;54.472;18.464;2022-12-10T10:25:17;99375.41;;;-1.59;81.63
59588;BME280;45412;54.472;18.464;2022-12-10T10:28:22;99376.51;;;-1.51;81.70
59588;BME280;45412;54.472;18.464;2022-12-10T10:31:27;99379.09;;;-1.46;81.56
59588;BME280;45412;54.472;18.464;2022-12-10T10:34:22;99374.30;;;-1.40;81.43
59588;BME280;45412;54.472;18.464;2022-12-10T10:37:26;99373.69;;;-1.33;81.49
59588;BME280;45412;54.472;18.464;2022-12-10T10:40:28;99373.11;;;-1.23;81.59
59588;BME280;45412;54.472;18.464;2022-12-10T10:43:39;99375.70;;;-1.14;80.98
59588;BME280;45412;54.472;18.464;2022-12-10T10:46:29;99366.45;;;-1.09;81.15
59588;BME280;45412;54.472;18.464;2022-12-10T10:49:33;99363.67;;;-1.05;80.99
59588;BME280;45412;54.472;18.464;2022-12-10T10:52:41;99364.73;;;-0.96;80.99
59588;BME280;45412;54.472;18.464;2022-12-10T10:55:40;99367.34;;;-0.84;80.32
59588;BME280;45412;54.472;18.464;2022-12-10T10:58:55;99367.77;;;-0.77;80.13
59588;BME280;45412;54.472;18.464;2022-12-10T11:02:43;99366.05;;;-0.62;79.43
59588;BME280;45412;54.472;18.464;2022-12-10T11:05:29;99367.77;;;-0.44;78.63
59588;BME280;45412;54.472;18.464;2022-12-10T11:08:30;99366.70;;;-0.12;78.07
59588;BME280;45412;54.472;18.464;2022-12-10T11:11:22;99352.75;;;1.44;76.17
59588;BME280;45412;54.472;18.464;2022-12-10T11:14:39;99346.45;;;2.59;71.15
59588;BME280;45412;54.472;18.464;2022-12-10T11:17:46;99341.40;;;3.21;67.42
59588;BME280;45412;54.472;18.464;2022-12-10T11:21:20;99338.84;;;3.37;65.15
59588;BME280;45412;54.472;18.464;2022-12-10T11:24:20;99333.48;;;3.36;65.73
59588;BME280;45412;54.472;18.464;2022-12-10T11:30:27;99334.84;;;3.89;63.26
59588;BME280;45412;54.472;18.464;2022-12-10T11:40:12;99325.43;;;6.00;58.08
59588;BME280;45412;54.472;18.464;2022-12-10T11:56:52;99331.02;;;4.14;57.94
59588;BME280;45412;54.472;18.464;2022-12-10T12:13:06;99330.04;;;2.20;64.16
59588;BME280;45412;54.472;18.464;2022-12-10T12:16:13;99334.21;;;1.95;65.12
59588;BME280;45412;54.472;18.464;2022-12-10T12:22:29;99332.55;;;1.46;66.94
59588;BME280;45412;54.472;18.464;2022-12-10T12:25:42;99335.26;;;1.17;67.53
59588;BME280;45412;54.472;18.464;2022-12-10T12:28:41;99334.11;;;0.88;67.73
59588;BME280;45412;54.472;18.464;2022-12-10T12:31:36;99335.70;;;0.69;68.74
59588;BME280;45412;54.472;18.464;2022-12-10T12:34:37;99338.27;;;0.71;69.28
59588;BME280;45412;54.472;18.464;2022-12-10T12:38:13;99335.86;;;0.66;69.30
59588;BME280;45412;54.472;18.464;2022-12-10T12:47:47;99331.30;;;0.18;70.28
59588;BME280;45412;54.472;18.464;2022-12-10T12:50:45;99331.63;;;-0.04;71.02
59588;BME280;45412;54.472;18.464;2022-12-10T12:53:34;99335.42;;;-0.30;71.54
59588;BME280;45412;54.472;18.464;2022-12-10T13:00:05;99336.34;;;-0.63;73.06
59588;BME280;45412;54.472;18.464;2022-12-10T13:05:52;99342.23;;;-0.91;74.02
59588;BME280;45412;54.472;18.464;2022-12-10T13:09:18;99343.39;;;-0.98;74.22
59588;BME280;45412;54.472;18.464;2022-12-10T13:15:33;99341.86;;;-1.21;75.15
59588;BME280;45412;54.472;18.464;2022-12-10T13:18:37;99340.24;;;-1.32;75.51
59588;BME280;45412;54.472;18.464;2022-12-10T13:21:31;99343.46;;;-1.43;76.20
59588;BME280;45412;54.472;18.464;2022-12-10T13:25:06;99350.02;;;-1.55;76.75
59588;BME280;45412;54.472;18.464;2022-12-10T13:27:57;99355.95;;;-1.69;77.52
59588;BME280;45412;54.472;18.464;2022-12-10T13:34:21;99360.21;;;-1.85;78.58
59588;BME280;45412;54.472;18.464;2022-12-10T13:43:55;99359.78;;;-2.11;79.53
59588;BME280;45412;54.472;18.464;2022-12-10T13:50:03;99359.55;;;-2.28;80.41
59588;BME280;45412;54.472;18.464;2022-12-10T14:06:00;99363.33;;;-2.87;82.18
59588;BME280;45412;54.472;18.464;2022-12-10T14:09:03;99368.88;;;-2.98;82.62
59588;BME280;45412;54.472;18.464;2022-12-10T14:12:01;99370.65;;;-3.09;82.80
59588;BME280;45412;54.472;18.464;2022-12-10T14:15:03;99374.72;;;-3.22;83.51
59588;BME280;45412;54.472;18.464;2022-12-10T14:18:12;99376.25;;;-3.33;83.32
59588;BME280;45412;54.472;18.464;2022-12-10T14:21:05;99378.98;;;-3.42;83.89
59588;BME280;45412;54.472;18.464;2022-12-10T14:23:54;99380.23;;;-3.49;83.93
59588;BME280;45412;54.472;18.464;2022-12-10T14:26:43;99377.64;;;-3.54;84.35
59588;BME280;45412;54.472;18.464;2022-12-10T14:29:30;99376.70;;;-3.58;84.59
59588;BME280;45412;54.472;18.464;2022-12-10T14:32:36;99375.30;;;-3.63;84.75
59588;BME280;45412;54.472;18.464;2022-12-10T14:35:28;99376.52;;;-3.69;85.10
59588;BME280;45412;54.472;18.464;2022-12-10T14:38:20;99378.44;;;-3.75;85.12
59588;BME280;45412;54.472;18.464;2022-12-10T14:41:19;99380.40;;;-3.83;85.52
59588;BME280;45412;54.472;18.464;2022-12-10T14:44:12;99378.91;;;-3.92;85.55
59588;BME280;45412;54.472;18.464;2022-12-10T14:47:16;99376.53;;;-3.99;85.81
59588;BME280;45412;54.472;18.464;2022-12-10T14:50:11;99374.90;;;-4.09;86.04
59588;BME280;45412;54.472;18.464;2022-12-10T14:53:05;99382.08;;;-4.17;86.31
59588;BME280;45412;54.472;18.464;2022-12-10T14:56:05;99383.65;;;-4.24;86.37
59588;BME280;45412;54.472;18.464;2022-12-10T14:59:11;99384.67;;;-4.30;86.29
59588;BME280;45412;54.472;18.464;2022-12-10T15:02:10;99383.73;;;-4.33;86.93
59588;BME280;45412;54.472;18.464;2022-12-10T15:05:01;99381.96;;;-4.38;86.81
59588;BME280;45412;54.472;18.464;2022-12-10T15:07:57;99382.30;;;-4.44;86.85
59588;BME280;45412;54.472;18.464;2022-12-10T15:10:50;99382.98;;;-4.50;86.99
59588;BME280;45412;54.472;18.464;2022-12-10T15:13:41;99384.23;;;-4.57;87.12
59588;BME280;45412;54.472;18.464;2022-12-10T15:16:42;99379.75;;;-4.65;87.39
59588;BME280;45412;54.472;18.464;2022-12-10T15:19:33;99379.38;;;-4.71;87.59
59588;BME280;45412;54.472;18.464;2022-12-10T15:22:30;99380.35;;;-4.75;87.46
59588;BME280;45412;54.472;18.464;2022-12-10T15:25:28;99381.48;;;-4.79;87.66
59588;BME280;45412;54.472;18.464;2022-12-10T15:28:30;99382.52;;;-4.80;88.14
59588;BME280;45412;54.472;18.464;2022-12-10T15:31:22;99380.44;;;-4.86;87.82
59588;BME280;45412;54.472;18.464;2022-12-10T15:34:16;99385.27;;;-4.92;87.97
59588;BME280;45412;54.472;18.464;2022-12-10T15:37:05;99385.42;;;-4.98;87.99
59588;BME280;45412;54.472;18.464;2022-12-10T15:39:57;99384.30;;;-5.02;88.27
59588;BME280;45412;54.472;18.464;2022-12-10T15:42:45;99389.42;;;-5.06;88.22
59588;BME280;45412;54.472;18.464;2022-12-10T15:45:42;99390.92;;;-5.11;88.40
59588;BME280;45412;54.472;18.464;2022-12-10T15:48:30;99392.91;;;-5.15;88.54
59588;BME280;45412;54.472;18.464;2022-12-10T15:51:18;99390.03;;;-5.17;88.36
59588;BME280;45412;54.472;18.464;2022-12-10T15:57:24;99388.75;;;-5.21;88.58
59588;BME280;45412;54.472;18.464;2022-12-10T16:00:25;99392.75;;;-5.22;88.59
59588;BME280;45412;54.472;18.464;2022-12-10T16:03:16;99391.77;;;-5.25;88.68
59588;BME280;45412;54.472;18.464;2022-12-10T16:06:06;99393.55;;;-5.26;88.83
59588;BME280;45412;54.472;18.464;2022-12-10T16:08:54;99391.70;;;-5.29;88.78
59588;BME280;45412;54.472;18.464;2022-12-10T16:11:41;99397.33;;;-5.33;88.81
59588;BME280;45412;54.472;18.464;2022-12-10T16:14:29;99395.52;;;-5.37;88.97
59588;BME280;45412;54.472;18.464;2022-12-10T16:17:17;99394.25;;;-5.42;89.14
59588;BME280;45412;54.472;18.464;2022-12-10T16:20:27;99389.71;;;-5.48;89.35
59588;BME280;45412;54.472;18.464;2022-12-10T16:23:16;99391.07;;;-5.54;89.56
59588;BME280;45412;54.472;18.464;2022-12-10T16:29:03;99388.00;;;-5.56;89.66
59588;BME280;45412;54.472;18.464;2022-12-10T16:31:51;99386.96;;;-5.56;89.75
59588;BME280;45412;54.472;18.464;2022-12-10T16:34:39;99384.21;;;-5.57;89.98
59588;BME280;45412;54.472;18.464;2022-12-10T16:37:27;99385.82;;;-5.59;90.18
59588;BME280;45412;54.472;18.464;2022-12-10T16:40:17;99391.08;;;-5.62;89.98
59588;BME280;45412;54.472;18.464;2022-12-10T16:43:05;99389.39;;;-5.64;90.11
59588;BME280;45412;54.472;18.464;2022-12-10T16:45:54;99394.25;;;-5.65;89.95
59588;BME280;45412;54.472;18.464;2022-12-10T16:48:43;99390.96;;;-5.65;90.10
59588;BME280;45412;54.472;18.464;2022-12-10T16:51:30;99392.41;;;-5.67;90.09